Estación de Los Angeles
Ultimos registro cada 15 minutos 70
| N° | Estación | Fecha / Hora | Temperatura | Humedad | Lluvia | Velocidad | Dirección | Radiación | Presion |
| 70 | Los Angeles | 04-05-2026 17:15 | 13,8 | 94,8 | 0 | 0 | 347 | 9,4 | 1005,1 |
| 69 | Los Angeles | 04-05-2026 17:00 | 14 | 94 | 0 | 0 | 350 | 19,4 | 1005 |
| 68 | Los Angeles | 04-05-2026 16:45 | 14,3 | 93,3 | 0 | 0 | 347 | 21,9 | 1005 |
| 67 | Los Angeles | 04-05-2026 16:30 | 14,5 | 92,6 | 0 | 0,3 | 357 | 31,9 | 1005 |
| 66 | Los Angeles | 04-05-2026 16:15 | 14,6 | 92,2 | 0 | 0,3 | 350 | 40,6 | 1004,9 |
| 65 | Los Angeles | 04-05-2026 16:00 | 14,8 | 91,9 | 0 | 0,3 | 351 | 58,1 | 1005,2 |
| 64 | Los Angeles | 04-05-2026 15:45 | 15 | 91,8 | 0 | 0,3 | 320 | 75,6 | 1005,2 |
| 63 | Los Angeles | 04-05-2026 15:30 | 15,2 | 91,5 | 0 | 0,3 | 352 | 63,1 | 1005,5 |
| 62 | Los Angeles | 04-05-2026 15:15 | 15,5 | 91,3 | 0 | 0,3 | 336 | 136,9 | 1005,4 |
| 61 | Los Angeles | 04-05-2026 15:00 | 15,4 | 91,2 | 0 | 0 | 336 | 94,4 | 1005,8 |
| 60 | Los Angeles | 04-05-2026 14:45 | 15,3 | 91,2 | 0 | 0,3 | 345 | 105,6 | 1005,7 |
| 59 | Los Angeles | 04-05-2026 14:30 | 15,4 | 91,6 | 0 | 0,3 | 354 | 135,6 | 1005,9 |
| 58 | Los Angeles | 04-05-2026 14:15 | 15,4 | 91,8 | 0 | 0,7 | 343 | 131,9 | 1005,9 |
| 57 | Los Angeles | 04-05-2026 14:00 | 15,6 | 92,2 | 0 | 0,3 | 341 | 236,9 | 1006,1 |
| 56 | Los Angeles | 04-05-2026 13:45 | 15,5 | 93,4 | 0 | 0,3 | 355 | 178,1 | 1006,4 |
| 55 | Los Angeles | 04-05-2026 13:30 | 14,8 | 94,6 | 0 | 0,3 | 358 | 119,4 | 1006,6 |
| 54 | Los Angeles | 04-05-2026 13:15 | 14,3 | 94,6 | 0 | 0,3 | 27 | 68,1 | 1006,3 |
| 53 | Los Angeles | 04-05-2026 13:00 | 14,4 | 93,9 | 0 | 0,7 | 1 | 49,4 | 1006,7 |
| 52 | Los Angeles | 04-05-2026 12:45 | 15,2 | 93,7 | 0 | 0,3 | 343 | 164,4 | 1006,8 |
| 51 | Los Angeles | 04-05-2026 12:30 | 14,9 | 95,6 | 0 | 0,7 | 306 | 253,1 | 1007 |
| 50 | Los Angeles | 04-05-2026 12:15 | 14,1 | 95,9 | 0 | 0,7 | 303 | 106,9 | 1007,1 |
| 49 | Los Angeles | 04-05-2026 12:00 | 14,2 | 96,5 | 0 | 0,7 | 338 | 119,4 | 1007,1 |
| 48 | Los Angeles | 04-05-2026 11:45 | 14,3 | 97,2 | 0 | 0,7 | 352 | 190,6 | 1007,2 |
| 47 | Los Angeles | 04-05-2026 11:30 | 13,5 | 97,9 | 0 | 0,7 | 4 | 186,9 | 1007 |
| 46 | Los Angeles | 04-05-2026 11:15 | 13,2 | 98,3 | 0 | 0,3 | 3 | 133,1 | 1007,2 |
| 45 | Los Angeles | 04-05-2026 11:00 | 12,6 | 98,7 | 0 | 0,3 | 13 | 106,9 | 1007,1 |
| 44 | Los Angeles | 04-05-2026 10:45 | 12,5 | 98,8 | 0 | 0,3 | 0 | 75,6 | 1007,3 |
| 43 | Los Angeles | 04-05-2026 10:30 | 12,2 | 98,8 | 0 | 0,3 | 357 | 61,9 | 1006,9 |
| 42 | Los Angeles | 04-05-2026 10:15 | 12 | 98,9 | 0 | 0,3 | 347 | 64,4 | 1007 |
| 41 | Los Angeles | 04-05-2026 10:00 | 12 | 99 | 0 | 0 | 351 | 58,1 | 1007 |
| 40 | Los Angeles | 04-05-2026 09:45 | 11,7 | 99 | 0 | 0,3 | 0 | 51,9 | 1006,7 |
| 39 | Los Angeles | 04-05-2026 09:30 | 11,5 | 99,1 | 0 | 0,3 | 357 | 38,1 | 1006,8 |
| 38 | Los Angeles | 04-05-2026 09:15 | 11,4 | 99 | 0 | 0 | 6 | 38,1 | 1006,7 |
| 37 | Los Angeles | 04-05-2026 09:00 | 11,3 | 99,1 | 0 | 0,3 | 8 | 35,6 | 1006,5 |
| 36 | Los Angeles | 04-05-2026 08:45 | 11 | 99,1 | 0 | 0,3 | 20 | 30,6 | 1006,3 |
| 35 | Los Angeles | 04-05-2026 08:30 | 10,9 | 99,2 | 0 | 0 | 347 | 11,9 | 1006,5 |
| 34 | Los Angeles | 04-05-2026 08:15 | 10,7 | 99 | 0 | 0,3 | 358 | 9,4 | 1006,3 |
| 33 | Los Angeles | 04-05-2026 08:00 | 10,7 | 99 | 0 | 0 | 14 | 8,1 | 1006 |
| 32 | Los Angeles | 04-05-2026 07:45 | 10,5 | 99,1 | 0 | 0 | 32 | 3,1 | 1005,7 |
| 31 | Los Angeles | 04-05-2026 07:30 | 10,5 | 99,1 | 0 | 0 | 39 | 0,6 | 1005,5 |
| 30 | Los Angeles | 04-05-2026 07:15 | 10,4 | 98,9 | 0 | 0 | 35 | 0,6 | 1005,5 |
| 29 | Los Angeles | 04-05-2026 07:00 | 10,5 | 99 | 0 | 0 | 341 | 0,6 | 1005,5 |
| 28 | Los Angeles | 04-05-2026 06:45 | 10,4 | 99 | 0 | 0 | 6 | 0,6 | 1005,8 |
| 27 | Los Angeles | 04-05-2026 06:30 | 10,4 | 99 | 0 | 0 | 340 | 0,6 | 1005,8 |
| 26 | Los Angeles | 04-05-2026 06:15 | 10,3 | 99 | 0 | 0 | 319 | 0,6 | 1005,8 |
| 25 | Los Angeles | 04-05-2026 06:00 | 10,3 | 99 | 0 | 0 | 312 | 0,6 | 1005,6 |
| 24 | Los Angeles | 04-05-2026 05:45 | 10,2 | 99 | 0 | 0 | 312 | 0,6 | 1005,7 |
| 23 | Los Angeles | 04-05-2026 05:30 | 10,2 | 99 | 0 | 0 | 312 | 0,6 | 1005,6 |
| 22 | Los Angeles | 04-05-2026 05:15 | 10,2 | 98,9 | 0 | 0 | 299 | 0,6 | 1005,7 |
| 21 | Los Angeles | 04-05-2026 05:00 | 10,1 | 98,9 | 0 | 0 | 298 | 0,6 | 1005,8 |
| 20 | Los Angeles | 04-05-2026 04:45 | 10,1 | 98,9 | 0 | 0 | 293 | 0,6 | 1005,8 |
| 19 | Los Angeles | 04-05-2026 04:30 | 10 | 98,8 | 0 | 0 | 291 | 0,6 | 1005,7 |
| 18 | Los Angeles | 04-05-2026 04:15 | 9,8 | 98,8 | 0 | 0 | 291 | 0,6 | 1005,6 |
| 17 | Los Angeles | 04-05-2026 04:00 | 9,8 | 98,8 | 0 | 0 | 291 | 0,6 | 1005,4 |
| 16 | Los Angeles | 04-05-2026 03:45 | 10,1 | 98,8 | 0 | 0 | 291 | 0,6 | 1005,6 |
| 15 | Los Angeles | 04-05-2026 03:30 | 10,2 | 98,7 | 0 | 0 | 298 | 0,6 | 1006 |
| 14 | Los Angeles | 04-05-2026 03:15 | 10,2 | 98,7 | 0 | 0 | 319 | 0,6 | 1006,2 |
| 13 | Los Angeles | 04-05-2026 03:00 | 10,2 | 98,7 | 0 | 0 | 319 | 0,6 | 1006,3 |
| 12 | Los Angeles | 04-05-2026 02:45 | 10,2 | 98,6 | 0 | 0 | 319 | 0,6 | 1006,5 |
| 11 | Los Angeles | 04-05-2026 02:30 | 10,2 | 98,6 | 0 | 0 | 320 | 0,6 | 1006,5 |
| 10 | Los Angeles | 04-05-2026 02:15 | 10,1 | 98,6 | 0 | 0 | 326 | 0,6 | 1006,3 |
| 9 | Los Angeles | 04-05-2026 02:00 | 10 | 98,5 | 0 | 0 | 326 | 0,6 | 1006,7 |
| 8 | Los Angeles | 04-05-2026 01:45 | 9,9 | 98,5 | 0 | 0 | 274 | 0,6 | 1006,7 |
| 7 | Los Angeles | 04-05-2026 01:30 | 10 | 98,4 | 0 | 0 | 265 | 0,6 | 1006,9 |
| 6 | Los Angeles | 04-05-2026 01:15 | 10 | 98,4 | 0 | 0 | 265 | 0,6 | 1007,3 |
| 5 | Los Angeles | 04-05-2026 01:00 | 9,9 | 98,4 | 0,2 | 0 | 254 | 0,6 | 1007,6 |
| 4 | Los Angeles | 04-05-2026 00:45 | 9,9 | 98,4 | 0 | 0 | 247 | 0,6 | 1007,7 |
| 3 | Los Angeles | 04-05-2026 00:30 | 9,8 | 98,3 | 0 | 0 | 247 | 0,6 | 1007,6 |
| 2 | Los Angeles | 04-05-2026 00:15 | 9,8 | 98,3 | 0 | 0 | 247 | 0,6 | 1007,7 |
| 1 | Los Angeles | 04-05-2026 00:00 | 9,7 | 98,3 | 0 | 0 | 247 | 0,6 | 1007,5 |